createdAt,value
2019-03-15T00:01:40.082Z,78.83
2019-03-15T00:04:08.553Z,78.63
2019-03-15T00:06:39.035Z,78.12
2019-03-15T00:09:09.866Z,77.84
2019-03-15T00:11:38.271Z,77.68
2019-03-15T00:14:06.981Z,77.40
2019-03-15T00:16:35.430Z,77.58
2019-03-15T00:19:03.921Z,77.79
2019-03-15T00:21:32.451Z,77.58
2019-03-15T00:24:00.879Z,77.44
2019-03-15T00:26:29.307Z,77.44
2019-03-15T00:28:57.702Z,76.84
2019-03-15T00:31:26.197Z,76.70
2019-03-15T00:33:54.695Z,76.54
2019-03-15T00:36:23.116Z,76.50
2019-03-15T00:38:51.564Z,76.11
2019-03-15T00:41:20.024Z,76.09
2019-03-15T00:43:49.606Z,76.54
2019-03-15T00:46:18.295Z,75.90
2019-03-15T00:48:46.691Z,75.53
2019-03-15T00:51:15.076Z,75.60
2019-03-15T00:53:43.586Z,75.70
2019-03-15T00:56:11.987Z,75.69
2019-03-15T00:58:40.453Z,75.60
2019-03-15T01:01:08.848Z,75.72
2019-03-15T01:03:37.249Z,75.30
2019-03-15T01:06:05.649Z,75.58
2019-03-15T01:08:34.070Z,75.46
2019-03-15T01:11:02.516Z,75.44
2019-03-15T01:13:31.024Z,75.43
2019-03-15T01:15:59.491Z,75.53
2019-03-15T01:18:27.906Z,75.22
2019-03-15T01:20:56.370Z,74.96
2019-03-15T01:23:24.761Z,75.01
2019-03-15T01:25:53.210Z,75.45
2019-03-15T01:28:21.603Z,75.12
2019-03-15T01:30:50.032Z,75.15
2019-03-15T01:33:18.453Z,74.95
2019-03-15T01:35:46.852Z,75.35
2019-03-15T01:38:15.256Z,75.09
2019-03-15T01:40:43.662Z,75.35
2019-03-15T01:43:12.057Z,75.38
2019-03-15T01:45:40.437Z,75.13
2019-03-15T01:48:08.845Z,75.12
2019-03-15T01:50:37.266Z,75.31
2019-03-15T01:53:05.722Z,75.46
2019-03-15T01:55:35.079Z,75.33
2019-03-15T01:58:03.419Z,75.16
2019-03-15T02:00:31.972Z,75.55
2019-03-15T02:03:02.341Z,75.80
2019-03-15T02:05:30.493Z,75.38
2019-03-15T02:07:58.897Z,75.43
2019-03-15T02:10:27.285Z,75.51
2019-03-15T02:12:55.688Z,75.18
2019-03-15T02:15:24.145Z,75.41
2019-03-15T02:17:52.718Z,75.01
2019-03-15T02:20:22.411Z,75.12
2019-03-15T02:22:50.852Z,75.12
2019-03-15T02:25:19.266Z,74.81
2019-03-15T02:27:47.664Z,74.81
2019-03-15T02:30:16.059Z,74.47
2019-03-15T02:32:44.449Z,74.67
2019-03-15T02:35:12.886Z,74.55
2019-03-15T02:37:41.287Z,74.45
2019-03-15T02:40:09.733Z,74.51
2019-03-15T02:42:38.141Z,74.06
2019-03-15T02:45:06.595Z,74.21
2019-03-15T02:47:35.034Z,74.08
2019-03-15T02:50:04.310Z,73.84
2019-03-15T02:52:32.696Z,73.63
2019-03-15T02:55:01.151Z,72.87
2019-03-15T02:57:29.623Z,72.95
2019-03-15T02:59:57.952Z,73.05
2019-03-15T03:02:27.651Z,73.16
2019-03-15T03:04:56.327Z,73.37
2019-03-15T03:07:24.760Z,73.19
2019-03-15T03:09:53.143Z,73.28
2019-03-15T03:12:21.570Z,72.97
2019-03-15T03:14:49.977Z,72.88
2019-03-15T03:17:18.414Z,72.65
2019-03-15T03:19:48.049Z,72.68
2019-03-15T03:22:16.414Z,72.67
2019-03-15T03:24:44.921Z,72.48
2019-03-15T03:27:13.299Z,72.57
2019-03-15T03:29:41.689Z,72.75
2019-03-15T03:32:10.136Z,72.88
2019-03-15T03:34:40.455Z,72.70
2019-03-15T03:37:08.625Z,73.17
2019-03-15T03:39:37.070Z,73.14
2019-03-15T03:42:05.566Z,73.02
2019-03-15T03:44:33.960Z,73.21
2019-03-15T03:47:02.410Z,73.32
2019-03-15T03:49:30.867Z,73.37
2019-03-15T03:51:59.243Z,73.51
2019-03-15T03:54:27.904Z,73.79
2019-03-15T03:56:56.430Z,73.81
2019-03-15T03:59:24.829Z,73.82
2019-03-15T04:01:53.231Z,73.89
2019-03-15T04:04:21.687Z,74.13
2019-03-15T04:06:50.212Z,74.17
2019-03-15T04:09:18.654Z,74.51
2019-03-15T04:11:55.241Z,74.48
2019-03-15T04:14:17.188Z,74.82
2019-03-15T04:16:45.651Z,74.90
2019-03-15T04:19:14.062Z,75.07
2019-03-15T04:21:42.498Z,75.14
2019-03-15T04:24:10.894Z,75.23
2019-03-15T04:26:40.933Z,75.22
2019-03-15T04:29:09.319Z,75.39
2019-03-15T04:31:37.715Z,75.55
2019-03-15T04:34:06.144Z,75.59
2019-03-15T04:36:34.543Z,75.78
2019-03-15T04:39:03.648Z,75.88
2019-03-15T04:41:32.058Z,75.86
2019-03-15T04:44:00.455Z,75.98
2019-03-15T04:46:28.880Z,76.01
2019-03-15T04:48:57.285Z,76.25
2019-03-15T04:51:25.699Z,76.24
2019-03-15T04:53:54.094Z,76.48
2019-03-15T04:56:22.480Z,76.45
2019-03-15T04:58:50.866Z,76.52
2019-03-15T05:01:19.262Z,76.57
2019-03-15T05:03:47.650Z,76.57
2019-03-15T05:06:16.028Z,76.50
2019-03-15T05:08:44.409Z,76.59
2019-03-15T05:11:12.824Z,76.52
2019-03-15T05:13:41.207Z,76.65
2019-03-15T05:16:09.704Z,76.63
2019-03-15T05:18:38.121Z,76.75
2019-03-15T05:21:06.509Z,76.93
2019-03-15T05:23:34.902Z,76.97
2019-03-15T05:26:03.290Z,76.97
2019-03-15T05:28:31.694Z,77.02
2019-03-15T05:31:00.092Z,77.06
2019-03-15T05:33:28.482Z,77.16
2019-03-15T05:35:56.880Z,77.17
2019-03-15T05:38:25.265Z,77.07
2019-03-15T05:40:54.120Z,77.24
2019-03-15T05:43:22.521Z,77.31
2019-03-15T05:45:50.926Z,77.39
2019-03-15T05:48:19.320Z,77.67
2019-03-15T05:50:47.708Z,77.74
2019-03-15T05:53:16.105Z,77.84
2019-03-15T05:55:44.498Z,77.74
2019-03-15T05:58:12.907Z,77.76
2019-03-15T06:00:41.301Z,77.82
2019-03-15T06:03:12.327Z,77.62
2019-03-15T06:05:39.885Z,77.68
2019-03-15T06:08:08.274Z,77.65
2019-03-15T06:10:36.681Z,77.64
2019-03-15T06:13:05.054Z,77.55
2019-03-15T06:15:33.448Z,77.74
2019-03-15T06:18:01.831Z,77.50
2019-03-15T06:20:30.221Z,77.33
2019-03-15T06:22:58.611Z,77.14
2019-03-15T06:25:27.083Z,77.09
2019-03-15T06:27:55.476Z,76.79
2019-03-15T06:30:23.852Z,76.81
2019-03-15T06:32:52.248Z,76.90
2019-03-15T06:35:20.635Z,76.72
2019-03-15T06:37:49.016Z,76.65
2019-03-15T06:40:17.407Z,76.58
2019-03-15T06:42:45.788Z,76.49
2019-03-15T06:45:14.949Z,76.54
2019-03-15T06:47:44.269Z,76.48
2019-03-15T06:50:13.677Z,76.27
2019-03-15T06:52:42.365Z,75.86
2019-03-15T06:55:10.861Z,75.89
2019-03-15T06:57:39.208Z,75.54
2019-03-15T07:00:13.149Z,75.34
2019-03-15T07:02:41.531Z,75.28
2019-03-15T07:05:12.154Z,75.16
2019-03-15T07:07:40.297Z,75.45
2019-03-15T07:10:10.523Z,75.33
2019-03-15T07:12:40.481Z,75.18
2019-03-15T07:15:12.253Z,74.80
2019-03-15T07:17:41.733Z,74.78
2019-03-15T07:20:17.159Z,74.41
2019-03-15T07:22:45.545Z,74.30
2019-03-15T07:25:14.393Z,74.25
2019-03-15T07:27:43.215Z,73.94
2019-03-15T07:30:14.057Z,73.86
2019-03-15T07:32:42.445Z,74.06
2019-03-15T07:35:10.900Z,74.01
2019-03-15T07:37:39.291Z,73.88
2019-03-15T07:40:12.761Z,74.01
2019-03-15T07:42:41.155Z,73.96
2019-03-15T07:45:11.188Z,73.99
2019-03-15T07:47:39.590Z,73.90
2019-03-15T07:50:13.805Z,73.80
2019-03-15T07:52:40.523Z,73.83
2019-03-15T07:55:09.443Z,73.85
2019-03-15T07:57:37.877Z,73.97
2019-03-15T08:00:12.212Z,74.00
2019-03-15T08:02:40.599Z,73.85
2019-03-15T08:05:09.760Z,73.75
2019-03-15T08:07:44.766Z,73.77
2019-03-15T08:10:12.841Z,73.82
2019-03-15T08:12:41.235Z,73.11
2019-03-15T08:15:11.493Z,73.37
2019-03-15T08:17:39.858Z,73.79
2019-03-15T08:20:10.580Z,73.33
2019-03-15T08:22:38.967Z,72.95
2019-03-15T08:25:09.291Z,73.32
2019-03-15T08:27:37.676Z,73.09
2019-03-15T08:30:11.563Z,72.73
2019-03-15T08:32:43.523Z,72.97
2019-03-15T08:35:11.095Z,72.75
2019-03-15T08:37:39.547Z,72.55
2019-03-15T08:40:12.303Z,72.75
2019-03-15T08:42:40.687Z,72.40
2019-03-15T08:45:12.116Z,72.80
2019-03-15T08:47:40.513Z,72.91
2019-03-15T08:50:14.747Z,72.56
2019-03-15T08:52:42.323Z,72.45
2019-03-15T08:55:11.951Z,72.58
2019-03-15T08:57:40.335Z,72.75
2019-03-15T09:00:11.997Z,73.03
2019-03-15T09:02:40.381Z,73.65
2019-03-15T09:05:10.805Z,73.71
2019-03-15T09:07:39.193Z,74.04
2019-03-15T09:10:21.874Z,74.92
2019-03-15T09:12:41.853Z,75.24
2019-03-15T09:15:11.427Z,75.56
2019-03-15T09:17:39.834Z,75.68
2019-03-15T09:20:10.103Z,75.66
2019-03-15T09:22:38.487Z,76.21
2019-03-15T09:25:19.365Z,76.54
2019-03-15T09:27:45.119Z,76.79
2019-03-15T09:30:23.359Z,76.72
2019-03-15T09:32:43.834Z,76.75
2019-03-15T09:35:12.365Z,77.06
2019-03-15T09:37:40.737Z,77.11
2019-03-15T09:40:11.635Z,77.16
2019-03-15T09:42:40.027Z,77.41
2019-03-15T09:45:11.323Z,77.57
2019-03-15T09:47:39.701Z,77.66
2019-03-15T09:50:21.100Z,77.72
2019-03-15T09:52:41.155Z,77.71
2019-03-15T09:55:10.977Z,77.85
2019-03-15T09:57:39.429Z,78.23
2019-03-15T10:00:10.853Z,78.14
2019-03-15T10:02:39.240Z,77.89
2019-03-15T10:05:11.374Z,78.00
2019-03-15T10:07:40.303Z,78.00
2019-03-15T10:10:14.000Z,77.95
2019-03-15T10:12:41.951Z,78.05
2019-03-15T10:15:17.201Z,78.44
2019-03-15T10:17:45.665Z,78.35
2019-03-15T10:20:15.008Z,78.24
2019-03-15T10:22:43.498Z,78.34
2019-03-15T10:25:15.935Z,78.62
2019-03-15T10:27:44.377Z,78.50
2019-03-15T10:30:17.424Z,78.04
2019-03-15T10:32:45.828Z,77.77
2019-03-15T10:35:14.205Z,78.20
2019-03-15T10:37:42.592Z,78.07
2019-03-15T10:40:24.223Z,78.54
2019-03-15T10:42:55.354Z,78.59
2019-03-15T10:45:22.775Z,78.79
2019-03-15T10:47:51.190Z,78.41
2019-03-15T10:50:20.110Z,78.34
2019-03-15T10:52:48.513Z,77.75
2019-03-15T10:55:20.334Z,77.23
2019-03-15T10:57:47.030Z,77.72
2019-03-15T11:00:17.503Z,77.59
2019-03-15T11:02:45.891Z,77.65
2019-03-15T11:05:14.414Z,77.75
2019-03-15T11:07:42.823Z,77.86
2019-03-15T11:10:12.146Z,78.38
2019-03-15T11:12:40.533Z,77.86
2019-03-15T11:15:10.846Z,77.42
2019-03-15T11:17:39.224Z,77.72
2019-03-15T11:20:09.731Z,78.34
2019-03-15T11:22:38.115Z,78.74
2019-03-15T11:25:10.648Z,78.49
2019-03-15T11:27:39.036Z,78.89
2019-03-15T11:30:09.666Z,78.00
2019-03-15T11:32:38.039Z,78.48
2019-03-15T11:35:08.347Z,78.75
2019-03-15T11:37:36.735Z,78.61
2019-03-15T11:40:19.406Z,78.45
2019-03-15T11:42:48.070Z,78.78
2019-03-15T11:45:16.720Z,78.57
2019-03-15T11:48:01.895Z,78.60
2019-03-15T11:50:19.804Z,78.91
2019-03-15T11:52:48.192Z,79.05
2019-03-15T11:55:16.577Z,78.84
2019-03-15T11:57:45.027Z,78.90
2019-03-15T12:00:16.097Z,78.92
2019-03-15T12:02:44.485Z,78.95
2019-03-15T12:05:13.404Z,79.32
2019-03-15T12:07:41.790Z,79.55
2019-03-15T12:10:14.521Z,79.74
2019-03-15T12:12:42.974Z,79.82
2019-03-15T12:15:15.549Z,79.51
2019-03-15T12:17:43.940Z,79.88
2019-03-15T12:20:13.167Z,80.14
2019-03-15T12:22:41.611Z,80.19
2019-03-15T12:25:10.835Z,80.34
2019-03-15T12:27:39.214Z,80.45
2019-03-15T12:30:12.582Z,80.55
2019-03-15T12:32:41.034Z,80.47
2019-03-15T12:35:13.144Z,80.61
2019-03-15T12:38:00.865Z,80.76
2019-03-15T12:40:29.256Z,80.88
2019-03-15T12:42:57.637Z,80.86
2019-03-15T12:45:26.027Z,80.96
2019-03-15T12:47:54.407Z,80.91
2019-03-15T12:50:22.876Z,81.03
2019-03-15T12:52:51.270Z,81.20
2019-03-15T12:55:19.647Z,81.14
2019-03-15T12:57:49.645Z,81.00
2019-03-15T13:00:19.210Z,81.15
2019-03-15T13:02:47.655Z,81.21
2019-03-15T13:05:16.032Z,81.29
2019-03-15T13:07:44.418Z,81.40
2019-03-15T13:10:14.971Z,81.52
2019-03-15T13:12:43.357Z,81.68
2019-03-15T13:15:13.578Z,81.67
2019-03-15T13:17:41.978Z,81.75
2019-03-15T13:20:13.237Z,81.78
2019-03-15T13:22:41.716Z,81.81
2019-03-15T13:25:11.353Z,81.81
2019-03-15T13:27:39.736Z,81.75
2019-03-15T13:30:13.186Z,81.74
2019-03-15T13:32:41.565Z,81.84
2019-03-15T13:35:10.450Z,81.80
2019-03-15T13:37:42.308Z,81.79
2019-03-15T13:40:14.276Z,81.89
2019-03-15T13:42:42.655Z,81.98
2019-03-15T13:45:12.278Z,82.04
2019-03-15T13:47:40.764Z,82.10
2019-03-15T13:50:11.907Z,82.13
2019-03-15T13:52:40.290Z,82.12
2019-03-15T13:55:08.881Z,82.14
2019-03-15T13:57:37.263Z,82.12
2019-03-15T14:00:11.442Z,82.25
2019-03-15T14:02:39.831Z,82.33
2019-03-15T14:05:08.452Z,82.37
2019-03-15T14:07:36.832Z,82.46
2019-03-15T14:10:10.983Z,82.56
2019-03-15T14:12:39.383Z,82.61
2019-03-15T14:15:10.685Z,82.62
2019-03-15T14:17:39.085Z,82.60
2019-03-15T14:20:10.205Z,82.66
2019-03-15T14:22:38.584Z,82.73
2019-03-15T14:25:10.250Z,82.79
2019-03-15T14:27:38.658Z,82.86
2019-03-15T14:30:10.071Z,82.88
2019-03-15T14:32:38.451Z,82.90
2019-03-15T14:35:08.080Z,82.86
2019-03-15T14:37:36.459Z,82.90
2019-03-15T14:40:07.011Z,82.96
2019-03-15T14:42:35.461Z,82.98
2019-03-15T14:45:04.544Z,82.96
2019-03-15T14:47:32.995Z,82.93
2019-03-15T14:50:01.534Z,82.97
2019-03-15T14:52:29.901Z,82.94
2019-03-15T14:54:58.344Z,82.77
2019-03-15T14:57:26.725Z,82.75
2019-03-15T14:59:55.111Z,82.70
2019-03-15T15:02:23.494Z,82.72
2019-03-15T15:04:51.967Z,82.65
2019-03-15T15:07:20.351Z,82.58
2019-03-15T15:09:48.754Z,82.56
2019-03-15T15:12:17.146Z,82.61
2019-03-15T15:14:45.610Z,82.57
2019-03-15T15:17:14.016Z,82.52
2019-03-15T15:19:42.392Z,82.56
2019-03-15T15:22:10.807Z,82.62
2019-03-15T15:24:39.187Z,82.60
2019-03-15T15:27:07.564Z,82.64
2019-03-15T15:29:36.045Z,82.70
2019-03-15T15:32:04.449Z,82.70
2019-03-15T15:34:32.843Z,82.62
2019-03-15T15:37:01.228Z,82.61
2019-03-15T15:39:29.615Z,82.66
2019-03-15T15:41:58.747Z,82.59
2019-03-15T15:44:27.258Z,82.59
2019-03-15T15:46:55.657Z,82.65
2019-03-15T15:49:26.194Z,82.52
2019-03-15T15:51:54.231Z,82.47
2019-03-15T15:54:22.695Z,82.51
2019-03-15T15:56:51.186Z,82.42
2019-03-15T15:59:19.541Z,82.25
2019-03-15T16:01:47.923Z,82.17
2019-03-15T16:04:16.307Z,82.15
2019-03-15T16:06:44.688Z,82.05
2019-03-15T16:09:13.064Z,82.08
2019-03-15T16:11:41.482Z,82.14
2019-03-15T16:14:09.867Z,82.19
2019-03-15T16:16:38.331Z,82.22
2019-03-15T16:19:06.857Z,82.14
2019-03-15T16:21:35.265Z,82.13
2019-03-15T16:24:03.717Z,82.13
2019-03-15T16:26:32.125Z,81.88
2019-03-15T16:29:00.501Z,81.77
2019-03-15T16:31:28.887Z,81.80
2019-03-15T16:33:57.274Z,81.73
2019-03-15T16:36:25.687Z,81.68
2019-03-15T16:38:54.034Z,81.35
2019-03-15T16:41:22.423Z,81.41
2019-03-15T16:43:50.813Z,81.41
2019-03-15T16:46:19.217Z,81.35
2019-03-15T16:48:47.594Z,81.41
2019-03-15T16:51:19.837Z,81.02
2019-03-15T16:53:46.152Z,80.52
2019-03-15T16:56:14.557Z,79.91
2019-03-15T16:58:45.799Z,80.29
2019-03-15T17:01:13.158Z,80.09
2019-03-15T17:03:41.542Z,80.24
2019-03-15T17:06:10.178Z,80.25
2019-03-15T17:08:39.602Z,80.31
2019-03-15T17:11:07.978Z,80.10
2019-03-15T17:13:36.381Z,80.04
2019-03-15T17:16:04.860Z,79.85
2019-03-15T17:18:33.330Z,79.90
2019-03-15T17:21:01.753Z,79.92
2019-03-15T17:23:30.136Z,80.14
2019-03-15T17:25:58.514Z,80.46
2019-03-15T17:28:26.898Z,80.44
2019-03-15T17:31:08.691Z,80.29
2019-03-15T17:33:25.460Z,80.17
2019-03-15T17:35:53.848Z,80.00
2019-03-15T17:38:22.235Z,80.16
2019-03-15T17:40:50.812Z,80.15
2019-03-15T17:43:19.272Z,80.31
2019-03-15T17:45:47.652Z,79.83
2019-03-15T17:48:16.083Z,79.85
2019-03-15T17:50:44.604Z,80.03
2019-03-15T17:53:12.984Z,79.95
2019-03-15T17:55:41.367Z,79.90
2019-03-15T17:58:09.760Z,79.43
2019-03-15T18:00:42.695Z,79.45
2019-03-15T18:03:20.638Z,79.17
2019-03-15T18:05:41.315Z,79.07
2019-03-15T18:08:09.699Z,78.84
2019-03-15T18:10:38.251Z,78.74
2019-03-15T18:13:06.787Z,78.77
2019-03-15T18:15:35.166Z,78.53
2019-03-15T18:18:03.675Z,78.25
2019-03-15T18:20:32.059Z,78.08
2019-03-15T18:23:00.460Z,78.48
2019-03-15T18:25:28.903Z,78.03
2019-03-15T18:27:57.375Z,77.80
2019-03-15T18:30:25.756Z,77.71
2019-03-15T18:32:54.323Z,77.45
2019-03-15T18:35:33.085Z,77.70
2019-03-15T18:37:52.829Z,77.64
2019-03-15T18:40:21.467Z,77.60
2019-03-15T18:42:50.093Z,77.43
2019-03-15T18:45:19.021Z,76.95
2019-03-15T18:47:47.514Z,77.51
2019-03-15T18:50:23.658Z,77.88
2019-03-15T18:52:52.041Z,77.75
2019-03-15T18:55:20.486Z,77.51
2019-03-15T18:57:48.866Z,77.50
2019-03-15T19:00:26.305Z,77.78
2019-03-15T19:02:54.674Z,78.03
2019-03-15T19:05:23.137Z,78.45
2019-03-15T19:07:51.733Z,78.46
2019-03-15T19:10:20.116Z,78.30
2019-03-15T19:12:48.518Z,78.25
2019-03-15T19:15:18.342Z,78.37
2019-03-15T19:17:46.736Z,78.42
2019-03-15T19:20:16.255Z,78.50
2019-03-15T19:22:44.895Z,78.39
2019-03-15T19:25:14.318Z,78.29
2019-03-15T19:27:42.740Z,78.44
2019-03-15T19:30:14.178Z,78.63
2019-03-15T19:32:42.663Z,78.74
2019-03-15T19:35:11.170Z,78.80
2019-03-15T19:37:39.534Z,78.37
2019-03-15T19:40:13.607Z,78.58
2019-03-15T19:42:44.868Z,78.81
2019-03-15T19:45:16.080Z,78.85
2019-03-15T19:47:44.513Z,79.05
2019-03-15T19:50:22.553Z,78.73
2019-03-15T19:52:50.971Z,78.34
2019-03-15T19:55:19.403Z,78.29
2019-03-15T19:57:47.798Z,78.44
2019-03-15T20:00:18.279Z,78.57
2019-03-15T20:02:46.685Z,78.82
2019-03-15T20:05:15.133Z,78.78
2019-03-15T20:07:43.579Z,78.87
2019-03-15T20:10:17.204Z,78.72
2019-03-15T20:12:45.825Z,78.88
2019-03-15T20:15:15.458Z,78.91
2019-03-15T20:17:43.874Z,78.96
2019-03-15T20:20:13.815Z,79.10
2019-03-15T20:22:43.144Z,79.38
2019-03-15T20:25:13.183Z,79.35
2019-03-15T20:27:41.566Z,79.44
2019-03-15T20:30:20.975Z,79.53
2019-03-15T20:32:43.339Z,79.70
2019-03-15T20:35:11.814Z,79.84
2019-03-15T20:37:40.198Z,79.76
2019-03-15T20:40:10.917Z,79.78
2019-03-15T20:42:39.309Z,79.66
2019-03-15T20:45:10.505Z,79.79
2019-03-15T20:47:41.575Z,79.95
2019-03-15T20:50:11.892Z,80.09
2019-03-15T20:52:40.272Z,80.12
2019-03-15T20:55:09.299Z,80.32
2019-03-15T20:57:37.676Z,80.47
2019-03-15T21:00:09.482Z,80.71
2019-03-15T21:02:37.904Z,80.94
2019-03-15T21:05:08.275Z,80.73
2019-03-15T21:07:39.507Z,80.75
2019-03-15T21:10:15.721Z,81.00
2019-03-15T21:12:44.103Z,81.03
2019-03-15T21:15:14.268Z,80.85
2019-03-15T21:17:42.687Z,81.05
2019-03-15T21:20:18.524Z,81.25
2019-03-15T21:22:46.916Z,81.21
2019-03-15T21:25:15.404Z,81.40
2019-03-15T21:27:53.675Z,81.50
2019-03-15T21:30:18.804Z,81.54
2019-03-15T21:32:47.283Z,81.55
2019-03-15T21:35:15.647Z,81.42
2019-03-15T21:37:44.035Z,81.54
2019-03-15T21:40:13.763Z,81.71
2019-03-15T21:42:42.253Z,81.74
2019-03-15T21:45:11.937Z,81.71
2019-03-15T21:47:40.326Z,81.85
2019-03-15T21:50:22.843Z,82.12
2019-03-15T21:52:51.377Z,82.17
2019-03-15T21:55:19.792Z,82.15
2019-03-15T21:57:48.256Z,82.02
2019-03-15T22:00:18.865Z,82.08
2019-03-15T22:02:47.327Z,82.21
2019-03-15T22:05:15.706Z,82.21
2019-03-15T22:07:44.120Z,82.27
2019-03-15T22:10:14.465Z,82.44
2019-03-15T22:12:42.844Z,82.47
2019-03-15T22:15:12.263Z,82.52
2019-03-15T22:17:40.728Z,82.58
2019-03-15T22:20:13.824Z,82.66
2019-03-15T22:22:42.232Z,82.62
2019-03-15T22:25:10.735Z,82.61
2019-03-15T22:27:39.109Z,82.51
2019-03-15T22:30:09.830Z,82.55
2019-03-15T22:32:38.583Z,82.65
2019-03-15T22:35:07.601Z,82.68
2019-03-15T22:37:35.985Z,82.73
2019-03-15T22:40:06.712Z,82.69
2019-03-15T22:42:35.099Z,82.76
2019-03-15T22:45:04.345Z,82.65
2019-03-15T22:47:32.732Z,82.65
2019-03-15T22:50:01.116Z,82.61
2019-03-15T22:52:29.542Z,82.52
2019-03-15T22:54:58.202Z,82.27
2019-03-15T22:57:26.587Z,82.39
2019-03-15T22:59:54.977Z,82.41
2019-03-15T23:02:23.362Z,82.48
2019-03-15T23:04:51.750Z,82.51
2019-03-15T23:07:20.143Z,82.47
2019-03-15T23:09:48.536Z,82.48
2019-03-15T23:12:16.973Z,82.56
2019-03-15T23:14:45.371Z,82.55
2019-03-15T23:17:13.746Z,82.55
2019-03-15T23:19:42.189Z,82.58
2019-03-15T23:22:10.571Z,82.55
2019-03-15T23:24:39.030Z,82.60
2019-03-15T23:27:07.424Z,82.59
2019-03-15T23:29:35.790Z,82.61
2019-03-15T23:32:04.187Z,82.53
2019-03-15T23:34:32.578Z,82.49
2019-03-15T23:37:00.955Z,82.58
2019-03-15T23:39:29.360Z,82.57
2019-03-15T23:41:57.734Z,82.59
2019-03-15T23:44:26.119Z,82.51
2019-03-15T23:46:54.590Z,82.46
2019-03-15T23:49:22.959Z,82.38
2019-03-15T23:51:51.338Z,82.47
2019-03-15T23:54:19.745Z,82.37
2019-03-15T23:56:48.104Z,82.30
2019-03-15T23:59:16.498Z,82.25
